EPKT

Katowice International Airport

Airport
ICAO code
EPKT
IATA Code
KTW
Summary
ICAO Region
EUR
ICAO Territory
Location

Pyrzowice, Silesia

Serving
Katowice
Elevation
997 ft
Coordinates
50° 28' 22" N , 19° 4' 33" E
Metar
EPKT 172200Z 08003KT 010V110 CAVOK 18/12 Q1016

Runways

Designator Length Width Surface Rops
9/27 2799 59 CON Yes/Yes

Airport map

Aerial View

Airport accidents

SKYbrary Partners:

Safety knowledge contributed by: